TimeEDT,TemperatureF,Dew PointF,Humidity,Sea Level PressureIn,VisibilityMPH,Wind Direction,Wind SpeedMPH,Gust SpeedMPH,PrecipitationIn,Events,Conditions,WindDirDegrees,DateUTC
12:15 AM,37.4,17.6,45,30.70,10.0,NNE,3.5,-,N/A,,Clear,20,2013-04-22 04:15:00
12:35 AM,37.4,17.6,45,30.69,10.0,North,4.6,-,N/A,,Clear,10,2013-04-22 04:35:00
12:55 AM,37.4,17.6,45,30.70,10.0,NNE,4.6,-,N/A,,Clear,20,2013-04-22 04:55:00
1:15 AM,37.4,17.6,45,30.70,10.0,NNE,4.6,-,N/A,,Clear,20,2013-04-22 05:15:00
1:35 AM,37.4,17.6,45,30.70,10.0,NNE,3.5,-,N/A,,Clear,20,2013-04-22 05:35:00
1:55 AM,37.4,15.8,41,30.70,10.0,NNE,4.6,-,N/A,,Clear,20,2013-04-22 05:55:00
2:15 AM,37.4,17.6,45,30.70,10.0,NNE,4.6,-,N/A,,Clear,30,2013-04-22 06:15:00
2:35 AM,35.6,19.4,52,30.71,10.0,NNE,4.6,-,N/A,,Clear,20,2013-04-22 06:35:00
2:55 AM,35.6,19.4,52,30.71,10.0,NNE,5.8,-,N/A,,Clear,30,2013-04-22 06:55:00
3:15 AM,35.6,21.2,56,30.72,10.0,NE,6.9,-,N/A,,Clear,40,2013-04-22 07:15:00
3:35 AM,37.4,21.2,52,30.73,10.0,NE,6.9,-,N/A,,Clear,40,2013-04-22 07:35:00
3:55 AM,37.4,21.2,52,30.73,10.0,NNE,8.1,-,N/A,,Clear,30,2013-04-22 07:55:00
4:15 AM,35.6,23.0,60,30.73,10.0,NNE,8.1,-,N/A,,Clear,30,2013-04-22 08:15:00
4:35 AM,37.4,21.2,52,30.74,10.0,NNE,6.9,-,N/A,,Clear,30,2013-04-22 08:35:00
4:55 AM,35.6,21.2,56,30.74,10.0,NNE,6.9,-,N/A,,Clear,30,2013-04-22 08:55:00
5:15 AM,35.6,19.4,52,30.74,10.0,NE,5.8,-,N/A,,Clear,40,2013-04-22 09:15:00
5:35 AM,35.6,21.2,56,30.75,10.0,NE,5.8,-,N/A,,Clear,40,2013-04-22 09:35:00
5:55 AM,35.6,21.2,56,30.76,10.0,NE,5.8,-,N/A,,Clear,40,2013-04-22 09:55:00
6:15 AM,35.6,23.0,60,30.77,10.0,NNE,4.6,-,N/A,,Clear,30,2013-04-22 10:15:00
6:55 AM,37.4,24.8,60,30.79,10.0,NNE,6.9,-,N/A,,Clear,30,2013-04-22 10:55:00
7:15 AM,39.2,24.8,56,30.79,10.0,NNE,6.9,-,N/A,,Clear,30,2013-04-22 11:15:00
7:35 AM,39.2,23.0,52,30.80,10.0,NE,10.4,-,N/A,,Clear,50,2013-04-22 11:35:00
7:55 AM,39.2,21.2,49,30.81,10.0,NNE,5.8,-,N/A,,Clear,30,2013-04-22 11:55:00
8:15 AM,39.2,21.2,49,30.81,10.0,NE,9.2,-,N/A,,Clear,50,2013-04-22 12:15:00
8:35 AM,41.0,21.2,45,30.80,10.0,NNE,6.9,-,N/A,,Clear,30,2013-04-22 12:35:00
8:55 AM,42.8,21.2,42,30.80,10.0,NE,8.1,-,N/A,,Clear,40,2013-04-22 12:55:00
9:15 AM,42.8,21.2,42,30.80,10.0,NE,9.2,-,N/A,,Clear,50,2013-04-22 13:15:00
9:35 AM,42.8,23.0,46,30.79,10.0,NE,9.2,-,N/A,,Clear,40,2013-04-22 13:35:00
9:55 AM,42.8,23.0,46,30.79,10.0,ENE,11.5,-,N/A,,Clear,60,2013-04-22 13:55:00
10:15 AM,42.8,21.2,42,30.79,10.0,NE,10.4,-,N/A,,Clear,50,2013-04-22 14:15:00
10:35 AM,44.6,21.2,39,30.79,10.0,ENE,12.7,-,N/A,,Clear,60,2013-04-22 14:35:00
10:55 AM,44.6,21.2,39,30.80,10.0,ENE,9.2,-,N/A,,Clear,60,2013-04-22 14:55:00
11:35 AM,44.6,28.4,53,30.82,10.0,ESE,11.5,-,N/A,,Clear,120,2013-04-22 15:35:00
11:55 AM,44.6,26.6,49,30.81,10.0,ESE,11.5,-,N/A,,Clear,110,2013-04-22 15:55:00
12:15 PM,44.6,26.6,49,30.81,10.0,East,10.4,-,N/A,,Clear,90,2013-04-22 16:15:00
12:35 PM,44.6,30.2,57,30.79,10.0,ESE,10.4,-,N/A,,Clear,110,2013-04-22 16:35:00
12:55 PM,44.6,30.2,57,30.78,10.0,East,10.4,-,N/A,,Clear,100,2013-04-22 16:55:00
1:15 PM,44.6,33.8,66,30.77,10.0,ESE,12.7,-,N/A,,Clear,110,2013-04-22 17:15:00
1:35 PM,44.6,33.8,66,30.77,10.0,ESE,13.8,-,N/A,,Clear,110,2013-04-22 17:35:00
1:55 PM,44.6,33.8,66,30.76,10.0,ESE,12.7,-,N/A,,Clear,110,2013-04-22 17:55:00
2:15 PM,44.6,35.6,71,30.78,10.0,ESE,18.4,-,N/A,,Clear,110,2013-04-22 18:15:00
2:35 PM,44.6,35.6,71,30.76,10.0,East,18.4,-,N/A,,Clear,100,2013-04-22 18:35:00
2:55 PM,44.6,35.6,71,30.76,10.0,ESE,17.3,-,N/A,,Clear,120,2013-04-22 18:55:00
3:15 PM,44.6,35.6,71,30.76,10.0,East,13.8,-,N/A,,Scattered Clouds,100,2013-04-22 19:15:00
3:35 PM,44.6,35.6,71,30.74,10.0,ESE,11.5,-,N/A,,Mostly Cloudy,120,2013-04-22 19:35:00
4:15 PM,44.6,33.8,66,30.73,10.0,SE,12.7,-,N/A,,Partly Cloudy,130,2013-04-22 20:15:00
4:35 PM,42.8,33.8,70,30.73,10.0,SE,11.5,-,N/A,,Clear,130,2013-04-22 20:35:00
4:55 PM,42.8,33.8,70,30.73,10.0,ESE,8.1,-,N/A,,Partly Cloudy,120,2013-04-22 20:55:00
5:15 PM,42.8,33.8,70,30.73,10.0,SE,10.4,-,N/A,,Partly Cloudy,130,2013-04-22 21:15:00
5:35 PM,42.8,32.0,66,30.73,10.0,SE,10.4,-,N/A,,Clear,130,2013-04-22 21:35:00
5:55 PM,42.8,30.2,61,30.73,10.0,SE,10.4,-,N/A,,Clear,140,2013-04-22 21:55:00
6:15 PM,41.0,30.2,65,30.73,10.0,SSE,9.2,-,N/A,,Clear,150,2013-04-22 22:15:00
6:35 PM,41.0,30.2,65,30.72,10.0,SE,6.9,-,N/A,,Clear,140,2013-04-22 22:35:00
6:55 PM,41.0,30.2,65,30.71,10.0,SE,8.1,-,N/A,,Clear,130,2013-04-22 22:55:00
7:15 PM,39.2,28.4,65,30.72,10.0,ESE,8.1,-,N/A,,Clear,120,2013-04-22 23:15:00
7:35 PM,39.2,28.4,65,30.72,10.0,ESE,9.2,-,N/A,,Clear,120,2013-04-22 23:35:00
7:55 PM,39.2,28.4,65,30.72,10.0,SE,6.9,-,N/A,,Clear,130,2013-04-22 23:55:00
8:15 PM,37.4,30.2,75,30.72,10.0,SE,8.1,-,N/A,,Clear,130,2013-04-23 00:15:00
8:35 PM,37.4,28.4,70,30.72,10.0,SE,6.9,-,N/A,,Clear,130,2013-04-23 00:35:00
8:55 PM,39.2,30.2,70,30.73,10.0,ESE,10.4,-,N/A,,Clear,120,2013-04-23 00:55:00
9:15 PM,39.2,28.4,65,30.73,10.0,ESE,8.1,-,N/A,,Clear,120,2013-04-23 01:15:00
9:35 PM,37.4,26.6,65,30.72,10.0,ESE,6.9,-,N/A,,Clear,110,2013-04-23 01:35:00
9:55 PM,37.4,30.2,75,30.72,10.0,East,8.1,-,N/A,,Clear,100,2013-04-23 01:55:00
10:15 PM,37.4,30.2,75,30.71,10.0,East,8.1,-,N/A,,Clear,100,2013-04-23 02:15:00
10:35 PM,37.4,30.2,75,30.70,10.0,East,9.2,-,N/A,,Clear,100,2013-04-23 02:35:00
10:55 PM,37.4,26.6,65,30.69,10.0,East,9.2,-,N/A,,Clear,90,2013-04-23 02:55:00
11:15 PM,39.2,26.6,61,30.68,10.0,East,10.4,-,N/A,,Clear,100,2013-04-23 03:15:00
11:35 PM,39.2,26.6,61,30.68,10.0,East,12.7,-,N/A,,Clear,90,2013-04-23 03:35:00
11:55 PM,39.2,26.6,61,30.66,10.0,East,12.7,-,N/A,,Clear,90,2013-04-23 03:55:00